createdAt,value
2023-03-23T15:58:29.457Z,12.70
2023-03-23T16:00:59.061Z,12.70
2023-03-23T16:03:29.904Z,12.90
2023-03-23T16:05:59.798Z,13.00
2023-03-23T16:08:27.787Z,13.10
2023-03-23T16:10:55.685Z,13.30
2023-03-23T16:13:24.916Z,13.40
2023-03-23T16:15:52.783Z,13.30
2023-03-23T16:18:22.419Z,13.10
2023-03-23T16:20:50.942Z,13.00
2023-03-23T16:23:19.278Z,12.90
2023-03-23T16:25:47.210Z,12.70
2023-03-23T16:28:15.829Z,12.70
2023-03-23T16:30:45.758Z,12.80
2023-03-23T16:33:13.954Z,12.80
2023-03-23T16:35:43.530Z,12.80
2023-03-23T16:38:14.440Z,12.70
2023-03-23T16:40:42.617Z,12.70
2023-03-23T16:43:11.826Z,12.70
2023-03-23T16:45:43.787Z,12.80
2023-03-23T16:48:15.876Z,12.90
2023-03-23T16:50:44.828Z,12.90
2023-03-23T16:53:13.175Z,12.80
2023-03-23T16:55:42.052Z,12.80
2023-03-23T16:58:16.878Z,12.70
2023-03-23T17:00:46.868Z,12.70
2023-03-23T17:03:16.748Z,12.50
2023-03-23T17:05:46.254Z,12.30
2023-03-23T17:08:14.414Z,12.30
2023-03-23T17:10:43.687Z,12.30
2023-03-23T17:13:12.228Z,12.20
2023-03-23T17:15:43.780Z,12.10
2023-03-23T17:18:15.918Z,12.10
2023-03-23T17:20:44.306Z,12.10
2023-03-23T17:23:12.442Z,12.20
2023-03-23T17:25:40.566Z,12.00
2023-03-23T17:28:08.499Z,12.10
2023-03-23T17:30:36.850Z,12.20
2023-03-23T17:33:04.994Z,12.00
2023-03-23T17:35:34.181Z,11.90
2023-03-23T17:38:02.269Z,12.00
2023-03-23T17:40:30.255Z,12.10
2023-03-23T17:42:58.206Z,11.90
2023-03-23T17:45:26.126Z,11.90
2023-03-23T17:47:54.008Z,11.90
2023-03-23T17:50:21.870Z,11.70
2023-03-23T17:52:51.147Z,11.60
2023-03-23T17:55:19.010Z,11.50
2023-03-23T17:57:46.904Z,11.70
2023-03-23T18:00:15.691Z,11.60
2023-03-23T18:02:43.608Z,11.50
2023-03-23T18:05:11.722Z,11.40
2023-03-23T18:07:39.767Z,11.30
2023-03-23T18:10:12.553Z,11.30
2023-03-23T18:12:40.923Z,11.20
2023-03-23T18:15:10.035Z,11.10
2023-03-23T18:17:38.047Z,11.10
2023-03-23T18:20:09.175Z,11.10
2023-03-23T18:22:37.080Z,11.10
2023-03-23T18:25:05.363Z,11.20
2023-03-23T18:27:34.910Z,11.10
2023-03-23T18:30:03.252Z,11.10
2023-03-23T18:32:31.419Z,11.10
2023-03-23T18:34:59.446Z,11.20
2023-03-23T18:37:27.647Z,11.20
2023-03-23T18:39:56.189Z,11.20
2023-03-23T18:42:24.173Z,11.20
2023-03-23T18:44:55.193Z,11.20
2023-03-23T18:47:23.161Z,11.30
2023-03-23T18:49:54.974Z,11.40
2023-03-23T18:52:26.068Z,11.40
2023-03-23T18:54:54.770Z,11.60
2023-03-23T18:57:23.451Z,11.60
2023-03-23T18:59:52.830Z,11.60
2023-03-23T19:02:21.704Z,11.70
2023-03-23T19:04:50.866Z,11.80
2023-03-23T19:07:19.746Z,11.70
2023-03-23T19:09:50.569Z,11.80
2023-03-23T19:12:18.586Z,11.80
2023-03-23T19:14:46.508Z,11.90
2023-03-23T19:17:16.843Z,12.00
2023-03-23T19:19:45.010Z,11.80
2023-03-23T19:22:13.353Z,11.90
2023-03-23T19:24:41.188Z,11.70
2023-03-23T19:27:09.435Z,11.80
2023-03-23T19:29:37.284Z,11.90
2023-03-23T19:32:08.388Z,11.90
2023-03-23T19:34:38.734Z,11.80
2023-03-23T19:37:10.836Z,11.90
2023-03-23T19:39:41.871Z,11.70
2023-03-23T19:42:11.066Z,11.80
2023-03-23T19:44:38.961Z,11.70
2023-03-23T19:47:07.190Z,11.80
2023-03-23T19:49:36.862Z,12.00
2023-03-23T19:52:10.527Z,11.90
2023-03-23T19:54:41.020Z,11.90
2023-03-23T19:57:09.839Z,11.90
2023-03-23T19:59:38.203Z,12.00
2023-03-23T20:02:06.932Z,12.00
2023-03-23T20:04:37.532Z,11.90
2023-03-23T20:07:07.721Z,12.10
2023-03-23T20:09:35.758Z,12.20
2023-03-23T20:12:04.985Z,12.30
2023-03-23T20:14:33.082Z,12.30
2023-03-23T20:17:01.586Z,12.30
2023-03-23T20:19:29.411Z,12.20
2023-03-23T20:21:58.861Z,12.20
2023-03-23T20:24:26.744Z,12.30
2023-03-23T20:29:23.833Z,12.40
2023-03-23T20:31:52.110Z,12.30
2023-03-23T20:34:28.929Z,12.40
2023-03-23T20:36:59.499Z,12.30
2023-03-23T20:39:30.559Z,12.30
2023-03-23T20:42:01.840Z,12.30
2023-03-23T20:44:32.906Z,12.30
2023-03-23T20:47:02.562Z,12.40
2023-03-23T20:49:31.894Z,12.40
2023-03-23T20:52:01.764Z,12.40
2023-03-23T20:54:30.144Z,12.40
2023-03-23T20:56:58.679Z,12.40
2023-03-23T20:59:27.084Z,12.40
2023-03-23T21:01:55.106Z,12.40
2023-03-23T21:04:27.254Z,12.40
2023-03-23T21:06:56.120Z,12.50
2023-03-23T21:09:26.227Z,12.40
2023-03-23T21:11:54.599Z,12.50
2023-03-23T21:14:22.533Z,12.60
2023-03-23T21:16:50.397Z,12.50
2023-03-23T21:19:19.268Z,12.60
2023-03-23T21:21:55.301Z,12.70
2023-03-23T21:24:28.009Z,12.60
2023-03-23T21:26:57.560Z,12.50
2023-03-23T21:29:25.436Z,12.50
2023-03-23T21:32:05.283Z,12.70
2023-03-23T21:34:36.591Z,12.60
2023-03-23T21:37:04.951Z,12.60
2023-03-23T21:39:34.690Z,12.50
2023-03-23T21:42:05.575Z,12.50
2023-03-23T21:44:35.274Z,12.60
2023-03-23T21:47:03.967Z,12.50
2023-03-23T21:49:31.873Z,12.40
2023-03-23T21:51:59.831Z,12.40
2023-03-23T21:54:29.966Z,12.40
2023-03-23T21:57:00.330Z,12.20
2023-03-23T21:59:28.863Z,12.20
2023-03-23T22:01:58.507Z,12.20
2023-03-23T22:04:27.777Z,12.20
2023-03-23T22:06:56.087Z,12.20
2023-03-23T22:09:24.108Z,12.10
2023-03-23T22:11:52.036Z,12.10
2023-03-23T22:14:21.437Z,12.00
2023-03-23T22:16:49.391Z,11.90
2023-03-23T22:19:17.544Z,12.00
2023-03-23T22:21:45.493Z,12.00
2023-03-23T22:24:13.843Z,11.80
2023-03-23T22:26:41.879Z,11.80
2023-03-23T22:29:11.186Z,11.80
2023-03-23T22:31:40.854Z,11.60
2023-03-23T22:34:08.881Z,11.60
2023-03-23T22:36:36.863Z,11.50
2023-03-23T22:39:04.962Z,11.50
2023-03-23T22:41:35.456Z,11.60
2023-03-23T22:44:03.660Z,11.50
2023-03-23T22:46:31.947Z,11.50
2023-03-23T22:49:01.262Z,11.50
2023-03-23T22:51:29.238Z,11.50
2023-03-23T22:53:57.258Z,11.40
2023-03-23T22:56:25.641Z,11.40
2023-03-23T22:58:54.498Z,11.40
2023-03-23T23:01:24.061Z,11.50
2023-03-23T23:03:52.255Z,11.30
2023-03-23T23:06:21.764Z,11.30
2023-03-23T23:08:52.468Z,11.30
2023-03-23T23:11:22.621Z,11.30
2023-03-23T23:13:51.035Z,11.30
2023-03-23T23:16:22.046Z,11.30
2023-03-23T23:18:50.082Z,11.30
2023-03-23T23:21:20.484Z,11.20
2023-03-23T23:23:51.654Z,11.30
2023-03-23T23:26:20.347Z,11.20
2023-03-23T23:28:49.430Z,11.20
2023-03-23T23:31:22.560Z,11.20
2023-03-23T23:33:50.956Z,11.20
2023-03-23T23:36:21.069Z,11.10
2023-03-23T23:38:50.629Z,11.20
2023-03-23T23:41:18.590Z,11.20
2023-03-23T23:43:46.592Z,11.10
2023-03-23T23:46:14.525Z,11.20
2023-03-23T23:48:44.775Z,11.20
2023-03-23T23:51:15.212Z,11.20
2023-03-23T23:53:44.070Z,11.20
2023-03-23T23:56:14.428Z,11.10
2023-03-23T23:58:42.843Z,11.20
